createdAt,value
2023-02-09T00:00:15.697Z,-1.80
2023-02-09T00:02:44.150Z,-2.30
2023-02-09T00:07:42.084Z,-2.40
2023-02-09T00:10:14.809Z,-2.40
2023-02-09T00:13:00.927Z,-2.30
2023-02-09T00:15:32.181Z,-2.50
2023-02-09T00:18:03.762Z,-2.40
2023-02-09T00:23:05.743Z,-2.40
2023-02-09T00:25:36.120Z,-2.50
2023-02-09T00:35:30.992Z,-2.60
2023-02-09T00:43:00.654Z,-2.60
2023-02-09T00:47:57.669Z,-2.80
2023-02-09T01:00:23.573Z,-2.80
2023-02-09T01:05:20.312Z,-3.00
2023-02-09T01:17:47.130Z,-2.90
2023-02-09T01:22:44.456Z,-2.90
2023-02-09T01:25:14.172Z,-2.90
2023-02-09T01:30:12.840Z,-3.90
2023-02-09T01:43:39.950Z,-3.10
2023-02-09T01:47:21.172Z,-2.90
2023-02-09T01:50:27.292Z,-2.80
2023-02-09T01:55:27.762Z,-2.90
2023-02-09T01:58:04.042Z,-2.90
2023-02-09T02:03:08.171Z,-3.00
2023-02-09T02:05:39.784Z,-2.90
2023-02-09T02:08:13.696Z,-2.90
2023-02-09T02:10:42.249Z,-2.90
2023-02-09T02:15:46.484Z,-2.80
2023-02-09T02:18:36.007Z,-2.90
2023-02-09T02:21:40.752Z,-3.00
2023-02-09T02:24:35.722Z,-3.10
2023-02-09T02:27:06.737Z,-3.10
2023-02-09T02:29:59.642Z,-3.00
2023-02-09T02:32:47.363Z,-3.00
2023-02-09T02:35:26.306Z,-2.80
2023-02-09T02:38:08.645Z,-3.00
2023-02-09T02:40:51.356Z,-3.10
2023-02-09T02:43:38.024Z,-3.70
2023-02-09T02:46:11.171Z,-3.10
2023-02-09T02:48:45.815Z,-3.30
2023-02-09T02:51:20.175Z,-3.20
2023-02-09T02:53:54.049Z,-3.30
2023-02-09T02:56:27.016Z,-3.40
2023-02-09T02:58:59.564Z,-3.40
2023-02-09T03:01:32.363Z,-1.50
2023-02-09T03:04:02.286Z,-3.40
2023-02-09T03:06:32.051Z,-3.50
2023-02-09T03:09:00.939Z,-3.60
2023-02-09T03:11:34.880Z,-3.60
2023-02-09T03:14:35.924Z,-3.60
2023-02-09T03:17:17.165Z,-4.50
2023-02-09T03:19:52.901Z,-3.70
2023-02-09T03:22:30.438Z,-4.10
2023-02-09T03:25:04.149Z,-3.80
2023-02-09T03:27:38.961Z,-4.90
2023-02-09T03:30:11.614Z,-3.90
2023-02-09T03:32:42.957Z,-3.90
2023-02-09T03:35:15.624Z,-3.90
2023-02-09T03:37:43.906Z,-3.90
2023-02-09T03:40:13.765Z,-4.10
2023-02-09T03:45:10.550Z,-4.00
2023-02-09T03:52:37.032Z,-4.30
2023-02-09T04:00:06.436Z,-4.20
2023-02-09T04:10:06.812Z,-4.40
2023-02-09T04:27:28.544Z,-4.60
2023-02-09T04:44:49.653Z,-4.60
2023-02-09T04:57:28.510Z,-4.70
2023-02-09T04:59:57.915Z,-4.70
2023-02-09T05:17:21.046Z,-4.80
2023-02-09T05:27:17.957Z,-4.90
2023-02-09T05:29:48.193Z,-5.00
2023-02-09T05:32:21.719Z,-5.00
2023-02-09T05:44:49.418Z,-5.10
2023-02-09T05:47:19.332Z,-5.20
2023-02-09T05:49:48.677Z,-5.10
2023-02-09T05:52:18.005Z,-5.10
2023-02-09T05:57:15.515Z,-5.40
2023-02-09T06:07:12.264Z,-5.30
2023-02-09T06:24:35.745Z,-5.40
2023-02-09T06:41:55.857Z,-5.60
2023-02-09T06:59:20.949Z,-5.90
2023-02-09T07:11:48.777Z,-5.80
2023-02-09T07:14:17.169Z,-5.40
2023-02-09T07:16:46.748Z,-5.30
2023-02-09T07:34:14.577Z,-4.80
2023-02-09T07:46:37.727Z,-4.90
2023-02-09T07:49:10.412Z,-4.80
2023-02-09T07:51:38.193Z,-4.70
2023-02-09T08:01:35.256Z,-4.30
2023-02-09T08:06:42.634Z,-4.20
2023-02-09T08:09:12.529Z,-4.10
2023-02-09T08:11:46.011Z,-4.10
2023-02-09T08:14:17.354Z,-3.90
2023-02-09T08:19:18.104Z,-3.60
2023-02-09T08:21:48.739Z,-3.50
2023-02-09T08:37:05.459Z,-2.80
2023-02-09T08:44:30.811Z,-2.20
2023-02-09T08:49:33.509Z,-2.00
2023-02-09T08:54:39.312Z,-1.90
2023-02-09T09:09:33.988Z,-1.30
2023-02-09T09:24:34.997Z,-0.80
2023-02-09T09:32:13.941Z,-0.50
2023-02-09T09:34:42.528Z,-0.50
2023-02-09T09:39:40.482Z,-0.30
2023-02-09T09:42:24.174Z,-0.20
2023-02-09T09:44:53.471Z,0.40
2023-02-09T09:47:27.941Z,0.00
2023-02-09T09:49:56.926Z,0.20
2023-02-09T09:52:33.903Z,-0.60
2023-02-09T09:55:08.120Z,0.30
2023-02-09T09:57:48.074Z,0.40
2023-02-09T10:00:20.544Z,0.40
2023-02-09T10:05:19.995Z,0.70
2023-02-09T10:07:55.141Z,0.70
2023-02-09T10:10:37.068Z,0.80
2023-02-09T10:13:14.592Z,0.90
2023-02-09T10:18:16.607Z,1.00
2023-02-09T10:20:49.560Z,1.10
2023-02-09T10:23:23.263Z,1.10
2023-02-09T10:26:04.531Z,1.30
2023-02-09T10:28:42.857Z,1.60
2023-02-09T10:31:19.422Z,1.60
2023-02-09T10:33:53.613Z,1.70
2023-02-09T10:36:27.757Z,1.70
2023-02-09T10:39:07.524Z,1.90
2023-02-09T10:41:48.173Z,2.00
2023-02-09T10:44:20.618Z,2.10
2023-02-09T10:49:30.496Z,2.10
2023-02-09T10:52:15.026Z,2.20
2023-02-09T10:54:45.617Z,2.20
2023-02-09T10:57:24.675Z,2.30
2023-02-09T10:59:54.344Z,2.50
2023-02-09T11:02:37.029Z,2.60
2023-02-09T11:05:25.771Z,2.70
2023-02-09T11:07:58.079Z,2.90
2023-02-09T11:10:27.842Z,3.00
2023-02-09T11:12:59.489Z,3.00
2023-02-09T11:15:34.098Z,3.20
2023-02-09T11:18:07.704Z,3.30
2023-02-09T11:20:41.781Z,3.30
2023-02-09T11:23:38.050Z,3.30
2023-02-09T11:26:13.752Z,3.20
2023-02-09T11:28:52.925Z,3.30
2023-02-09T11:31:39.946Z,3.30
2023-02-09T11:34:19.940Z,3.40
2023-02-09T11:36:55.544Z,3.60
2023-02-09T11:39:30.969Z,3.70
2023-02-09T11:42:22.083Z,3.90
2023-02-09T11:44:59.959Z,4.00
2023-02-09T11:47:34.584Z,4.40
2023-02-09T11:50:11.380Z,3.90
2023-02-09T11:52:50.426Z,4.00
2023-02-09T11:55:34.667Z,4.10
2023-02-09T11:58:16.389Z,4.10
2023-02-09T12:01:01.687Z,4.30
2023-02-09T12:06:05.961Z,4.20
2023-02-09T12:09:00.107Z,3.90
2023-02-09T12:11:48.362Z,4.30
2023-02-09T12:14:28.410Z,4.40
2023-02-09T12:17:08.379Z,4.00
2023-02-09T12:26:10.366Z,4.30
2023-02-09T12:28:42.868Z,4.80
2023-02-09T12:31:21.606Z,4.70
2023-02-09T12:34:31.567Z,4.50
2023-02-09T12:37:29.214Z,4.50
2023-02-09T12:40:22.828Z,4.60
2023-02-09T12:43:28.653Z,3.30
2023-02-09T12:46:44.922Z,4.70
2023-02-09T12:49:24.514Z,4.60
2023-02-09T12:52:15.420Z,4.60
2023-02-09T12:54:49.198Z,4.90
2023-02-09T12:57:54.286Z,4.80
2023-02-09T13:00:57.698Z,4.50
2023-02-09T13:03:27.770Z,4.90
2023-02-09T13:06:00.882Z,4.80
2023-02-09T13:08:35.858Z,4.80
2023-02-09T13:11:19.674Z,5.20
2023-02-09T13:13:54.696Z,5.30
2023-02-09T13:16:56.515Z,5.00
2023-02-09T13:20:05.943Z,5.20
2023-02-09T13:22:51.510Z,5.00
2023-02-09T13:25:33.610Z,5.40
2023-02-09T13:28:14.405Z,5.30
2023-02-09T13:30:46.688Z,5.40
2023-02-09T13:33:56.978Z,5.00
2023-02-09T13:37:08.313Z,5.40
2023-02-09T13:39:39.764Z,5.40
2023-02-09T13:42:21.506Z,5.30
2023-02-09T13:44:53.048Z,5.40
2023-02-09T13:50:03.503Z,5.60
2023-02-09T13:52:38.638Z,5.40
2023-02-09T13:55:13.604Z,5.70
2023-02-09T13:57:55.947Z,5.30
2023-02-09T14:00:31.724Z,5.10
2023-02-09T14:03:02.815Z,5.00
2023-02-09T14:05:41.844Z,5.00
2023-02-09T14:08:14.056Z,4.90
2023-02-09T14:10:44.809Z,4.90
2023-02-09T14:13:21.041Z,4.90
2023-02-09T14:16:09.089Z,4.90
2023-02-09T14:18:46.342Z,4.90
2023-02-09T14:21:23.778Z,5.10
2023-02-09T14:24:19.248Z,4.80
2023-02-09T14:26:53.948Z,4.80
2023-02-09T14:29:30.314Z,4.80
2023-02-09T14:32:06.342Z,4.80
2023-02-09T14:34:39.504Z,5.00
2023-02-09T14:37:29.833Z,4.70
2023-02-09T14:40:01.271Z,4.70
2023-02-09T14:45:04.258Z,4.80
2023-02-09T14:47:56.056Z,4.80
2023-02-09T14:50:26.402Z,4.80
2023-02-09T14:53:06.543Z,4.70
2023-02-09T14:55:40.446Z,4.70
2023-02-09T14:58:21.900Z,4.70
2023-02-09T15:01:09.960Z,4.60
2023-02-09T15:06:07.727Z,4.40
2023-02-09T15:08:39.791Z,5.20
2023-02-09T15:11:25.723Z,4.80
2023-02-09T15:13:58.059Z,4.80
2023-02-09T15:16:28.233Z,4.60
2023-02-09T15:31:35.837Z,4.50
2023-02-09T15:34:05.213Z,4.50
2023-02-09T15:44:36.718Z,4.40
2023-02-09T15:47:24.369Z,4.30
2023-02-09T15:54:52.040Z,4.40
2023-02-09T15:59:51.696Z,3.80
2023-02-09T16:02:22.347Z,4.30
2023-02-09T16:07:25.251Z,4.10
2023-02-09T16:09:53.708Z,4.00
2023-02-09T16:17:22.765Z,3.60
2023-02-09T16:27:25.143Z,3.10
2023-02-09T16:29:55.422Z,3.10
2023-02-09T16:32:26.810Z,2.90
2023-02-09T16:35:07.348Z,2.70
2023-02-09T16:37:44.611Z,2.60
2023-02-09T16:40:25.622Z,2.70
2023-02-09T16:45:24.473Z,2.20
2023-02-09T16:47:59.136Z,2.10
2023-02-09T16:50:33.011Z,2.10
2023-02-09T16:53:03.403Z,1.90
2023-02-09T16:55:33.002Z,1.80
2023-02-09T16:58:02.813Z,1.70
2023-02-09T17:00:33.530Z,1.60
2023-02-09T17:03:07.568Z,1.50
2023-02-09T17:05:37.600Z,1.40
2023-02-09T17:08:16.295Z,1.30
2023-02-09T17:15:46.660Z,1.00
2023-02-09T17:18:20.186Z,1.00
2023-02-09T17:20:53.209Z,0.90
2023-02-09T17:23:23.481Z,0.90
2023-02-09T17:25:55.129Z,0.70
2023-02-09T17:28:27.871Z,0.70
2023-02-09T17:30:59.042Z,0.60
2023-02-09T17:33:31.662Z,0.60
2023-02-09T17:41:19.587Z,0.50
2023-02-09T17:46:18.824Z,0.40
2023-02-09T17:48:49.229Z,0.40
2023-02-09T17:51:22.165Z,0.30
2023-02-09T17:53:50.687Z,0.30
2023-02-09T18:01:26.569Z,0.10
2023-02-09T18:03:58.262Z,0.10
2023-02-09T18:06:33.723Z,0.00
2023-02-09T18:09:03.025Z,-0.10
2023-02-09T18:11:43.249Z,-0.10
2023-02-09T18:14:14.498Z,-0.10
2023-02-09T18:16:43.330Z,-0.20
2023-02-09T18:19:13.749Z,-0.20
2023-02-09T18:21:48.784Z,-0.20
2023-02-09T18:34:16.703Z,-0.50
2023-02-09T18:36:48.714Z,-0.50
2023-02-09T18:39:18.007Z,-0.50
2023-02-09T18:44:19.181Z,-0.70
2023-02-09T18:49:20.763Z,-0.70
2023-02-09T19:06:44.723Z,-1.00
2023-02-09T19:09:15.728Z,-0.90
2023-02-09T19:21:58.046Z,-1.10
2023-02-09T19:31:57.951Z,-1.20
2023-02-09T19:39:25.493Z,-1.20
2023-02-09T19:56:47.441Z,-1.30
2023-02-09T20:14:10.614Z,-1.40
2023-02-09T20:29:07.546Z,-1.30
2023-02-09T20:31:39.414Z,-1.30
2023-02-09T20:34:11.546Z,-1.30
2023-02-09T20:36:41.516Z,-1.30
2023-02-09T20:39:16.044Z,-1.40
2023-02-09T20:42:02.875Z,-1.40
2023-02-09T20:47:19.112Z,-1.40
2023-02-09T20:52:21.088Z,-1.40
2023-02-09T21:02:25.463Z,-1.60
2023-02-09T21:05:05.068Z,-1.60
2023-02-09T21:07:45.440Z,-1.70
2023-02-09T21:10:36.345Z,-1.70
2023-02-09T21:13:08.249Z,-1.70
2023-02-09T21:15:48.054Z,-1.90
2023-02-09T21:18:19.163Z,-1.80
2023-02-09T21:28:15.224Z,-1.90
2023-02-09T21:30:45.971Z,-1.90
2023-02-09T21:35:44.750Z,-2.00
2023-02-09T21:45:40.455Z,-2.30
2023-02-09T21:53:17.021Z,-2.20
2023-02-09T21:56:15.014Z,-2.30
2023-02-09T22:04:05.361Z,-2.30
2023-02-09T22:09:11.159Z,-2.30
2023-02-09T22:16:43.144Z,-2.30
2023-02-09T22:21:45.998Z,-2.30
2023-02-09T22:24:26.388Z,-2.40
2023-02-09T22:29:25.739Z,-2.50
2023-02-09T22:34:28.577Z,-2.60
2023-02-09T22:39:26.724Z,-2.70
2023-02-09T22:41:58.160Z,-2.70
2023-02-09T22:46:58.694Z,-2.70
2023-02-09T22:49:28.457Z,-2.80
2023-02-09T22:54:27.219Z,-2.80
2023-02-09T23:06:54.973Z,-2.80
2023-02-09T23:11:53.194Z,-2.70
2023-02-09T23:19:23.611Z,-2.80
2023-02-09T23:21:53.399Z,-2.80
2023-02-09T23:24:24.466Z,-3.00
2023-02-09T23:26:54.324Z,-2.80
2023-02-09T23:29:26.127Z,-2.80
2023-02-09T23:31:54.549Z,-3.30
2023-02-09T23:34:26.710Z,-2.80
2023-02-09T23:39:25.667Z,-2.80
2023-02-09T23:41:55.167Z,-2.80
2023-02-09T23:56:46.666Z,-3.10
2023-02-09T23:59:16.627Z,-2.80
